Time;durP1;ratioP1;P1;durP2;ratioP2;P2;SDS_P1;SDS_P2;PMS_P1;PMS_P2;Temp;Humidity;BMP_temperature;BMP_pressure;BME280_temperature;BME280_humidity;BME280_pressure;Samples;Min_cycle;Max_cycle;Signal;HPM_P1;HPM_P2
2022/06/29 00:02:07;;;;;;;1999.90;999.90;;;;;;;22.29;68.12;95258.09;5070138;28;20024;-66
2022/06/29 00:04:32;;;;;;;1999.90;999.90;;;;;;;22.53;67.57;95254.03;5069457;28;20037;-66
2022/06/29 00:06:58;;;;;;;1999.90;999.90;;;;;;;22.70;67.23;95269.59;5070481;28;20063;-66
2022/06/29 00:09:23;;;;;;;1999.90;999.90;;;;;;;22.63;67.08;95228.91;5068953;28;20059;-66
2022/06/29 00:11:48;;;;;;;1999.90;999.90;;;;;;;22.77;66.71;95234.38;5068748;28;20595;-66
2022/06/29 00:14:14;;;;;;;1999.90;999.90;;;;;;;22.79;65.58;95209.63;5068792;28;20028;-66
2022/06/29 00:16:40;;;;;;;1999.90;999.90;;;;;;;22.28;65.46;95116.44;5070308;28;20028;-66
2022/06/29 00:19:05;;;;;;;1999.90;999.90;;;;;;;23.08;64.39;95237.66;5069974;28;20500;-66
2022/06/29 00:21:31;;;;;;;1999.90;999.90;;;;;;;22.33;64.39;95123.41;5069407;28;20077;-66
2022/06/29 00:23:56;;;;;;;1999.90;999.90;;;;;;;23.46;64.23;95265.31;5068226;28;20111;-66
2022/06/29 00:26:22;;;;;;;1999.90;999.90;;;;;;;23.23;63.91;95224.91;5068617;28;20424;-67
2022/06/29 00:28:47;;;;;;;1999.90;999.90;;;;;;;22.45;64.09;95103.34;5069867;28;20025;-65
2022/06/29 00:31:12;;;;;;;1999.90;999.90;;;;;;;23.34;63.90;95229.25;5069489;28;20024;-71
2022/06/29 00:33:38;;;;;;;1999.90;999.90;;;;;;;23.39;63.98;95209.09;5069181;28;20098;-71
2022/06/29 00:36:04;;;;;;;1999.90;999.90;;;;;;;23.49;63.19;95208.34;5069859;28;20381;-71
2022/06/29 00:38:29;;;;;;;1999.90;999.90;;;;;;;23.72;63.22;95232.44;5068080;28;20020;-71
2022/06/29 00:40:54;;;;;;;1999.90;999.90;;;;;;;23.47;62.80;95190.88;5068190;28;20111;-71
2022/06/29 00:43:20;;;;;;;1999.90;999.90;;;;;;;23.72;63.01;95216.16;5068733;28;20844;-71
2022/06/29 00:45:45;;;;;;;1999.90;999.90;;;;;;;23.72;62.76;95215.38;5069709;28;20488;-71
2022/06/29 00:48:10;;;;;;;1999.90;999.90;;;;;;;23.67;62.47;95204.88;5070090;28;20025;-71
2022/06/29 00:50:38;;;;;;;1999.90;999.90;;;;;;;23.66;62.35;95198.69;5069334;28;20107;-71
2022/06/29 00:53:05;;;;;;;1999.90;999.90;;;;;;;23.83;62.97;95222.34;5068519;28;20028;-70
2022/06/29 00:55:33;;;;;;;1999.90;999.90;;;;;;;23.83;62.34;95216.91;5069380;28;20031;-71
2022/06/29 00:58:03;;;;;;;1999.90;999.90;;;;;;;23.69;62.33;95205.25;5069830;28;20103;-71
2022/06/29 01:00:29;;;;;;;1999.90;999.90;;;;;;;23.64;62.60;95198.28;5069163;28;20055;-70
2022/06/29 01:02:55;;;;;;;1999.90;999.90;;;;;;;23.52;62.30;95190.47;5067371;28;20051;-71
2022/06/29 01:05:20;;;;;;;1999.90;999.90;;;;;;;23.48;62.52;95192.41;5069476;28;20052;-71
2022/06/29 01:07:46;;;;;;;1999.90;999.90;;;;;;;23.64;62.67;95240.94;5068642;28;20427;-71
2022/06/29 01:10:11;;;;;;;1999.90;999.90;;;;;;;23.67;62.36;95240.19;5068903;28;20118;-71
2022/06/29 01:12:37;;;;;;;1999.90;999.90;;;;;;;23.59;62.26;95214.91;5068592;28;20035;-70
2022/06/29 01:15:02;;;;;;;1999.90;999.90;;;;;;;23.61;62.23;95226.19;5069305;28;20111;-71
2022/06/29 01:17:28;;;;;;;1999.90;999.90;;;;;;;23.60;62.18;95243.66;5068154;28;20032;-71
2022/06/29 01:19:53;;;;;;;1999.90;999.90;;;;;;;23.24;62.42;95254.41;5069275;28;20036;-71
2022/06/29 01:22:21;;;;;;;1999.90;999.90;;;;;;;23.45;62.48;95236.63;5068576;28;20113;-71
2022/06/29 01:24:47;;;;;;;1999.90;999.90;;;;;;;23.44;62.59;95237.78;5067454;28;20060;-71
2022/06/29 01:27:14;;;;;;;1999.90;999.90;;;;;;;23.58;62.34;95237.81;5071888;28;20059;-71
2022/06/29 01:29:40;;;;;;;1999.90;999.90;;;;;;;23.52;62.17;95223.06;5071866;28;20474;-71
2022/06/29 01:32:06;;;;;;;1999.90;999.90;;;;;;;23.66;62.11;95236.69;5070990;28;20135;-71
2022/06/29 01:34:33;;;;;;;1999.90;999.90;;;;;;;23.67;62.16;95227.38;5073406;28;20024;-70
2022/06/29 01:36:59;;;;;;;1999.90;999.90;;;;;;;23.53;61.97;95203.66;5073453;28;20028;-72
2022/06/29 01:39:26;;;;;;;1999.90;999.90;;;;;;;23.60;62.22;95203.69;5071836;28;20032;-69
2022/06/29 01:41:51;;;;;;;1999.90;999.90;;;;;;;23.45;61.94;95183.13;5072807;28;20028;-70
2022/06/29 01:44:16;;;;;;;1999.90;999.90;;;;;;;23.53;62.30;95198.22;5071842;28;20021;-71
2022/06/29 01:46:42;;;;;;;1999.90;999.90;;;;;;;23.39;61.96;95171.09;5073191;28;20395;-70
2022/06/29 01:49:07;;;;;;;1999.90;999.90;;;;;;;23.49;62.37;95178.47;5070978;28;20028;-71
2022/06/29 01:51:33;;;;;;;1999.90;999.90;;;;;;;23.42;61.95;95162.16;5072483;28;20385;-71
2022/06/29 01:53:59;;;;;;;1999.90;999.90;;;;;;;23.28;61.65;95175.69;5070959;28;20024;-71
2022/06/29 01:56:24;;;;;;;1999.90;999.90;;;;;;;23.07;61.79;95158.19;5071508;28;20471;-71
2022/06/29 01:58:50;;;;;;;1999.90;999.90;;;;;;;22.84;62.91;95176.72;5070890;28;20040;-71
2022/06/29 02:01:15;;;;;;;1999.90;999.90;;;;;;;21.88;66.16;95128.16;5071335;28;20031;-71
2022/06/29 02:03:41;;;;;;;1999.90;999.90;;;;;;;22.07;66.18;95132.53;5072737;28;20020;-71
2022/06/29 02:06:06;;;;;;;1999.90;999.90;;;;;;;22.03;66.38;95156.09;5072749;28;20387;-71
2022/06/29 02:08:32;;;;;;;1999.90;999.90;;;;;;;21.62;67.77;95129.13;5070590;28;20017;-71
2022/06/29 02:10:59;;;;;;;1999.90;999.90;;;;;;;21.92;66.86;95133.59;5072389;28;20480;-71
2022/06/29 02:13:25;;;;;;;1999.90;999.90;;;;;;;21.82;66.60;95132.38;5071486;28;20031;-70
2022/06/29 02:15:50;;;;;;;1999.90;999.90;;;;;;;21.82;67.34;95150.53;5070212;28;20407;-71
2022/06/29 02:18:15;;;;;;;1999.90;999.90;;;;;;;22.27;66.37;95223.25;5070372;28;20032;-71
2022/06/29 02:20:41;;;;;;;1999.90;999.90;;;;;;;22.59;65.95;95255.22;5070876;28;20017;-71
2022/06/29 02:23:06;;;;;;;1999.90;999.90;;;;;;;22.31;65.04;95207.78;5070336;28;20035;-70
2022/06/29 02:25:32;;;;;;;1999.90;999.90;;;;;;;22.62;65.30;95202.94;5072250;28;20099;-71
2022/06/29 02:27:57;;;;;;;1999.90;999.90;;;;;;;22.89;64.95;95241.47;5070386;28;20052;-70
2022/06/29 02:34:43;;;;;;;1999.90;999.90;;;;;;;22.80;64.89;95205.75;5071789;28;20028;-70
2022/06/29 02:35:52;;;;;;;1999.90;999.90;;;;;;;22.89;64.43;95206.22;5072000;28;20027;-70
2022/06/29 02:38:17;;;;;;;1999.90;999.90;;;;;;;22.99;64.29;95208.19;5070967;28;20036;-71
2022/06/29 02:40:42;;;;;;;1999.90;999.90;;;;;;;23.12;64.44;95208.59;5069894;28;20039;-71
2022/06/29 02:43:08;;;;;;;1999.90;999.90;;;;;;;23.03;63.92;95183.75;5072243;28;20048;-71
2022/06/29 02:45:33;;;;;;;1999.90;999.90;;;;;;;23.20;63.58;95190.44;5071910;28;20062;-71
2022/06/29 02:47:58;;;;;;;1999.90;999.90;;;;;;;22.64;64.10;95172.75;5071532;28;20483;-71
2022/06/29 02:50:24;;;;;;;1999.90;999.90;;;;;;;21.84;67.05;95159.84;5071450;28;20021;-71
2022/06/29 02:52:49;;;;;;;1999.90;999.90;;;;;;;21.31;69.25;95111.47;5071206;28;20483;-71
2022/06/29 02:55:14;;;;;;;1999.90;999.90;;;;;;;21.42;69.23;95120.44;5071999;28;20082;-70
2022/06/29 02:57:40;;;;;;;1999.90;999.90;;;;;;;21.87;67.84;95155.63;5070926;28;20075;-71
2022/06/29 03:00:06;;;;;;;1999.90;999.90;;;;;;;22.24;66.47;95163.63;5071267;28;20448;-71
2022/06/29 03:02:31;;;;;;;1999.90;999.90;;;;;;;22.14;66.35;95139.94;5071806;28;20013;-71
2022/06/29 03:04:56;;;;;;;1999.90;999.90;;;;;;;22.03;65.96;95142.56;5071689;28;20393;-70
2022/06/29 03:07:22;;;;;;;1999.90;999.90;;;;;;;22.38;65.65;95190.81;5071571;28;20031;-70
2022/06/29 03:09:47;;;;;;;1999.90;999.90;;;;;;;22.47;65.90;95177.72;5069661;28;20089;-70
2022/06/29 03:12:12;;;;;;;1999.90;999.90;;;;;;;22.18;65.54;95165.13;5071299;28;20036;-70
2022/06/29 03:14:38;;;;;;;1999.90;999.90;;;;;;;22.42;64.57;95179.97;5071757;28;20047;-71
2022/06/29 03:17:03;;;;;;;1999.90;999.90;;;;;;;22.29;65.48;95164.03;5068955;28;20028;-71
2022/06/29 03:19:28;;;;;;;1999.90;999.90;;;;;;;22.33;65.70;95174.91;5069990;28;20020;-70
2022/06/29 03:21:54;;;;;;;1999.90;999.90;;;;;;;22.36;65.66;95195.03;5069831;28;20548;-70
2022/06/29 03:24:19;;;;;;;1999.90;999.90;;;;;;;22.38;65.30;95190.03;5070668;28;20595;-71
2022/06/29 03:26:44;;;;;;;1999.90;999.90;;;;;;;22.33;65.71;95198.53;5071071;28;20396;-71
2022/06/29 03:29:09;;;;;;;1999.90;999.90;;;;;;;22.39;65.61;95191.59;5071361;28;20082;-71
2022/06/29 03:31:35;;;;;;;1999.90;999.90;;;;;;;22.34;65.69;95178.41;5068472;28;20048;-71
2022/06/29 03:34:00;;;;;;;1999.90;999.90;;;;;;;21.90;66.01;95155.63;5069686;28;20465;-70
2022/06/29 03:36:25;;;;;;;1999.90;999.90;;;;;;;21.77;67.08;95173.31;5069733;28;20028;-71
2022/06/29 03:38:51;;;;;;;1999.90;999.90;;;;;;;21.80;67.22;95181.50;5069122;28;20111;-70
2022/06/29 03:41:16;;;;;;;1999.90;999.90;;;;;;;21.80;67.69;95178.78;5070737;28;20021;-70
2022/06/29 03:43:41;;;;;;;1999.90;999.90;;;;;;;21.97;67.37;95192.81;5069680;28;20029;-70
2022/06/29 03:46:06;;;;;;;1999.90;999.90;;;;;;;22.13;67.23;95193.34;5070831;28;20029;-71
2022/06/29 03:48:32;;;;;;;1999.90;999.90;;;;;;;22.29;66.94;95217.47;5068261;28;20649;-72
2022/06/29 03:50:57;;;;;;;1999.90;999.90;;;;;;;22.49;66.80;95190.88;5068723;28;20141;-71
2022/06/29 03:53:23;;;;;;;1999.90;999.90;;;;;;;22.62;65.91;95188.59;5069106;28;20358;-70
2022/06/29 03:55:48;;;;;;;1999.90;999.90;;;;;;;22.82;65.26;95206.13;5069472;28;20131;-71
2022/06/29 03:58:13;;;;;;;1999.90;999.90;;;;;;;22.79;65.43;95204.19;5068211;28;20028;-71
2022/06/29 04:00:39;;;;;;;1999.90;999.90;;;;;;;22.88;64.83;95215.50;5070107;28;20103;-71
2022/06/29 04:03:04;;;;;;;1999.90;999.90;;;;;;;23.14;64.67;95238.88;5069132;28;20027;-71
2022/06/29 04:05:29;;;;;;;1999.90;999.90;;;;;;;23.16;63.72;95220.25;5070267;28;20362;-71
2022/06/29 04:07:55;;;;;;;1999.90;999.90;;;;;;;23.17;63.47;95208.22;5070381;28;20048;-72
2022/06/29 04:10:20;;;;;;;1999.90;999.90;;;;;;;22.97;63.13;95171.72;5069238;28;20380;-71
2022/06/29 04:12:45;;;;;;;1999.90;999.90;;;;;;;23.35;62.99;95211.78;5070203;28;20455;-71
2022/06/29 04:15:11;;;;;;;1999.90;999.90;;;;;;;23.37;62.40;95203.25;5068954;28;20064;-71
2022/06/29 04:17:36;;;;;;;1999.90;999.90;;;;;;;23.43;62.58;95214.50;5070207;28;20036;-71
2022/06/29 04:20:03;;;;;;;1999.90;999.90;;;;;;;23.43;62.09;95200.94;5067603;28;20466;-71
2022/06/29 04:22:28;;;;;;;1999.90;999.90;;;;;;;23.34;61.88;95193.19;5070174;28;20099;-72
2022/06/29 04:24:54;;;;;;;1999.90;999.90;;;;;;;23.57;61.92;95203.69;5068881;28;20476;-71
2022/06/29 04:27:20;;;;;;;1999.90;999.90;;;;;;;23.54;61.87;95191.63;5070080;28;20021;-70
2022/06/29 04:29:46;;;;;;;1999.90;999.90;;;;;;;23.81;61.84;95211.13;5067693;28;20047;-71
2022/06/29 04:32:11;;;;;;;1999.90;999.90;;;;;;;23.82;61.51;95209.16;5068452;28;20070;-70
2022/06/29 04:34:37;;;;;;;1999.90;999.90;;;;;;;23.90;61.06;95209.94;5069690;28;20453;-72
2022/06/29 04:37:02;;;;;;;1999.90;999.90;;;;;;;24.08;60.71;95205.28;5068781;28;20037;-71
2022/06/29 04:39:28;;;;;;;1999.90;999.90;;;;;;;24.02;60.36;95187.81;5067396;28;20021;-68
2022/06/29 04:41:53;;;;;;;1999.90;999.90;;;;;;;24.26;60.14;95202.53;5067293;28;20115;-68
2022/06/29 04:44:19;;;;;;;1999.90;999.90;;;;;;;24.21;59.56;95187.44;5068624;28;20056;-68
2022/06/29 04:46:44;;;;;;;1999.90;999.90;;;;;;;24.31;59.62;95189.34;5069704;28;20031;-67
2022/06/29 04:49:10;;;;;;;1999.90;999.90;;;;;;;24.31;59.53;95191.28;5068235;28;20024;-67
2022/06/29 04:51:35;;;;;;;1999.90;999.90;;;;;;;24.39;59.30;95190.13;5067132;28;20919;-66
2022/06/29 04:54:01;;;;;;;1999.90;999.90;;;;;;;24.51;59.08;95213.41;5066947;28;20167;-66
2022/06/29 04:56:30;;;;;;;1999.90;999.90;;;;;;;24.57;58.70;95218.06;5068184;28;20055;-69
2022/06/29 04:58:56;;;;;;;1999.90;999.90;;;;;;;24.37;58.37;95181.59;5069416;28;20058;-70
2022/06/29 05:01:23;;;;;;;1999.90;999.90;;;;;;;24.51;58.44;95206.03;5066521;28;20397;-67
2022/06/29 05:03:49;;;;;;;1999.90;999.90;;;;;;;24.61;58.87;95218.06;5068385;28;20481;-67
2022/06/29 05:06:15;;;;;;;1999.90;999.90;;;;;;;24.61;58.77;95204.44;5069461;28;20043;-72
2022/06/29 05:08:40;;;;;;;1999.90;999.90;;;;;;;24.50;58.02;95193.59;5066365;28;20462;-68
2022/06/29 05:11:05;;;;;;;1999.90;999.90;;;;;;;24.47;58.06;95186.25;5065728;28;20078;-70
2022/06/29 05:13:31;;;;;;;1999.90;999.90;;;;;;;24.58;58.32;95210.69;5068496;28;20147;-67
2022/06/29 05:15:56;;;;;;;1999.90;999.90;;;;;;;24.57;58.60;95184.66;5066049;28;20472;-65
2022/06/29 05:18:21;;;;;;;1999.90;999.90;;;;;;;24.78;58.12;95205.59;5065284;28;20116;-66
2022/06/29 05:20:47;;;;;;;1999.90;999.90;;;;;;;24.88;58.03;95205.56;5062504;28;20025;-68
2022/06/29 05:23:12;;;;;;;1999.90;999.90;;;;;;;24.80;57.41;95184.97;5067212;28;20033;-66
2022/06/29 05:25:39;;;;;;;1999.90;999.90;;;;;;;24.64;57.53;95203.69;5063534;28;20052;-68
2022/06/29 05:28:05;;;;;;;1999.90;999.90;;;;;;;24.77;57.53;95210.25;5076236;28;20028;-66
2022/06/29 05:30:31;;;;;;;1999.90;999.90;;;;;;;25.01;57.41;95218.72;5063648;28;20042;-74
2022/06/29 05:32:56;;;;;;;1999.90;999.90;;;;;;;24.97;57.00;95196.94;5065391;28;20038;-68
2022/06/29 05:35:21;;;;;;;1999.90;999.90;;;;;;;25.02;56.27;95212.88;5064706;28;20028;-68
2022/06/29 05:37:46;;;;;;;1999.90;999.90;;;;;;;24.01;58.00;95189.78;5065279;28;20103;-70
2022/06/29 05:40:12;;;;;;;1999.90;999.90;;;;;;;22.02;63.59;95124.75;5066328;28;20444;-69
2022/06/29 05:42:37;;;;;;;1999.90;999.90;;;;;;;21.75;65.40;95157.47;5065942;28;20401;-69
2022/06/29 05:45:03;;;;;;;1999.90;999.90;;;;;;;21.99;66.55;95201.34;5066571;28;20043;-70
2022/06/29 05:47:28;;;;;;;1999.90;999.90;;;;;;;23.16;63.27;95165.22;5066997;28;20033;-69
2022/06/29 05:49:57;;;;;;;1999.90;999.90;;;;;;;23.44;61.83;95161.75;5068809;28;20036;-70
2022/06/29 05:52:24;;;;;;;1999.90;999.90;;;;;;;24.23;59.80;95162.56;5057555;28;20029;-69
2022/06/29 05:54:49;;;;;;;1999.90;999.90;;;;;;;22.64;63.44;95157.25;5066694;28;20101;-69
2022/06/29 05:57:14;;;;;;;1999.90;999.90;;;;;;;23.79;61.06;95177.34;5068502;28;20029;-69
2022/06/29 05:59:40;;;;;;;1999.90;999.90;;;;;;;22.93;62.27;95182.59;5066897;28;20024;-69
2022/06/29 06:02:05;;;;;;;1999.90;999.90;;;;;;;22.43;64.61;95185.03;5064996;28;20384;-69
2022/06/29 06:04:31;;;;;;;1999.90;999.90;;;;;;;23.67;60.95;95154.06;5066815;28;20036;-70
2022/06/29 06:06:56;;;;;;;1999.90;999.90;;;;;;;23.96;58.50;95116.81;5066081;28;20078;-71
2022/06/29 06:09:26;;;;;;;1999.90;999.90;;;;;;;25.00;56.56;95160.03;5066840;28;20025;-70
2022/06/29 06:11:52;;;;;;;1999.90;999.90;;;;;;;24.58;56.97;95178.06;5067662;28;20156;-70
2022/06/29 06:14:17;;;;;;;1999.90;999.90;;;;;;;24.77;56.72;95199.38;5069289;28;20095;-72
2022/06/29 06:16:42;;;;;;;1999.90;999.90;;;;;;;24.57;57.13;95176.50;5070284;28;20036;-68
2022/06/29 06:19:08;;;;;;;1999.90;999.90;;;;;;;24.02;58.92;95185.13;5070790;28;20448;-67
2022/06/29 06:21:35;;;;;;;1999.90;999.90;;;;;;;23.93;57.88;95188.22;5070911;28;20025;-71
2022/06/29 06:24:00;;;;;;;1999.90;999.90;;;;;;;24.27;57.53;95191.31;5070675;28;20032;-70
2022/06/29 06:26:25;;;;;;;1999.90;999.90;;;;;;;25.41;55.67;95182.00;5069658;28;20024;-70
2022/06/29 06:28:52;;;;;;;1999.90;999.90;;;;;;;25.11;55.81;95177.09;5072209;28;20480;-70
2022/06/29 06:31:17;;;;;;;1999.90;999.90;;;;;;;23.46;60.02;95176.50;5071781;28;20103;-69
2022/06/29 06:33:43;;;;;;;1999.90;999.90;;;;;;;25.23;56.80;95184.78;5072368;28;20099;-70
2022/06/29 06:36:08;;;;;;;1999.90;999.90;;;;;;;24.93;56.17;95193.50;5069846;28;20036;-71
2022/06/29 06:38:33;;;;;;;1999.90;999.90;;;;;;;25.56;55.08;95210.69;5072031;28;20028;-69
2022/06/29 06:43:42;;;;;;;1999.90;999.90;;;;;;;24.85;55.47;95195.44;5071996;28;20043;-70
2022/06/29 06:46:09;;;;;;;1999.90;999.90;;;;;;;24.38;57.44;95213.84;5070863;28;20107;-71
2022/06/29 06:48:35;;;;;;;1999.90;999.90;;;;;;;25.26;55.81;95216.69;5070472;28;20029;-71
2022/06/29 06:51:00;;;;;;;1999.90;999.90;;;;;;;25.49;54.58;95201.78;5071592;28;20020;-70
2022/06/29 06:53:26;;;;;;;1999.90;999.90;;;;;;;25.21;55.73;95219.03;5071577;28;20029;-70
2022/06/29 06:55:51;;;;;;;1999.90;999.90;;;;;;;25.07;54.80;95211.72;5070370;28;20036;-69
2022/06/29 06:58:17;;;;;;;1999.90;999.90;;;;;;;24.52;56.60;95231.31;5071395;28;20025;-70
2022/06/29 07:00:43;;;;;;;1999.90;999.90;;;;;;;24.90;56.05;95210.59;5071346;28;20028;-70
2022/06/29 07:03:08;;;;;;;1999.90;999.90;;;;;;;25.64;55.07;95235.91;5070332;28;20032;-70
2022/06/29 07:05:34;;;;;;;1999.90;999.90;;;;;;;26.05;53.96;95235.28;5070183;28;20063;-71
2022/06/29 07:07:59;;;;;;;1999.90;999.90;;;;;;;26.34;53.27;95241.28;5071485;28;20017;-70
2022/06/29 07:10:24;;;;;;;1999.90;999.90;;;;;;;26.58;51.85;95217.72;5070113;28;20028;-70
2022/06/29 07:12:50;;;;;;;1999.90;999.90;;;;;;;23.82;57.59;95214.59;5070201;28;20051;-70
2022/06/29 07:15:15;;;;;;;1999.90;999.90;;;;;;;24.97;56.48;95231.56;5070417;28;20067;-69
2022/06/29 07:17:40;;;;;;;1999.90;999.90;;;;;;;26.22;54.11;95236.34;5069865;28;20016;-70
2022/06/29 07:20:07;;;;;;;1999.90;999.90;;;;;;;26.84;52.33;95230.69;5069666;28;20023;-70
2022/06/29 07:22:33;;;;;;;1999.90;999.90;;;;;;;27.47;50.25;95242.03;5071246;28;20392;-70
2022/06/29 07:24:58;;;;;;;1999.90;999.90;;;;;;;27.86;48.14;95238.00;5068126;28;20112;-70
2022/06/29 07:27:24;;;;;;;1999.90;999.90;;;;;;;28.17;47.60;95244.16;5071086;28;20634;-70
2022/06/29 07:29:52;;;;;;;1999.90;999.90;;;;;;;28.50;47.17;95239.72;5071293;28;20051;-70
2022/06/29 07:32:20;;;;;;;1999.90;999.90;;;;;;;28.61;47.17;95246.97;5070814;28;20523;-70
2022/06/29 07:34:46;;;;;;;1999.90;999.90;;;;;;;28.61;46.92;95245.03;5068821;28;20032;-70
2022/06/29 07:37:11;;;;;;;1999.90;999.90;;;;;;;28.47;46.55;95242.53;5069873;28;20028;-70
2022/06/29 07:39:37;;;;;;;1999.90;999.90;;;;;;;28.01;46.90;95246.78;5070819;28;20021;-70
2022/06/29 07:42:03;;;;;;;1999.90;999.90;;;;;;;28.08;47.66;95251.34;5069545;28;20404;-71
2022/06/29 07:44:29;;;;;;;1999.90;999.90;;;;;;;28.10;48.04;95244.28;5070922;28;20099;-70
2022/06/29 07:46:55;;;;;;;1999.90;999.90;;;;;;;27.81;47.12;95246.69;5070189;28;20123;-70
2022/06/29 07:49:22;;;;;;;1999.90;999.90;;;;;;;27.64;47.90;95232.06;5070585;28;20684;-71
2022/06/29 07:51:47;;;;;;;1999.90;999.90;;;;;;;27.66;47.40;95209.78;5070438;28;20032;-70
2022/06/29 07:54:13;;;;;;;1999.90;999.90;;;;;;;28.01;47.32;95235.84;5071045;28;20029;-70
2022/06/29 07:56:38;;;;;;;1999.90;999.90;;;;;;;28.03;47.25;95224.47;5069304;28;20082;-70
2022/06/29 07:59:03;;;;;;;1999.90;999.90;;;;;;;28.16;46.85;95219.97;5070448;28;20038;-70
2022/06/29 08:01:29;;;;;;;1999.90;999.90;;;;;;;28.52;46.86;95211.19;5070052;28;20028;-71
2022/06/29 08:03:55;;;;;;;1999.90;999.90;;;;;;;29.20;45.23;95224.38;5070321;28;20033;-70
2022/06/29 08:06:21;;;;;;;1999.90;999.90;;;;;;;29.64;44.59;95205.88;5069536;28;20491;-72
2022/06/29 08:08:47;;;;;;;1999.90;999.90;;;;;;;27.88;46.93;95204.78;5070008;28;20048;-70
2022/06/29 08:11:12;;;;;;;1999.90;999.90;;;;;;;25.47;51.67;95188.56;5068747;28;20067;-70
2022/06/29 08:13:41;;;;;;;1999.90;999.90;;;;;;;26.38;50.43;95182.81;5070086;28;20111;-70
2022/06/29 08:16:09;;;;;;;1999.90;999.90;;;;;;;24.27;55.90;95191.31;5069197;28;20032;-70
2022/06/29 08:18:35;;;;;;;1999.90;999.90;;;;;;;24.80;56.08;95184.19;5070112;28;20536;-70
2022/06/29 08:21:03;;;;;;;1999.90;999.90;;;;;;;25.74;52.96;95175.13;5067766;28;20499;-70
2022/06/29 08:23:28;;;;;;;1999.90;999.90;;;;;;;25.22;52.37;95169.66;5070119;28;20078;-71
2022/06/29 08:25:54;;;;;;;1999.90;999.90;;;;;;;25.01;52.74;95172.44;5069139;28;20028;-70
2022/06/29 08:28:19;;;;;;;1999.90;999.90;;;;;;;25.15;52.95;95215.97;5069790;28;20081;-70
2022/06/29 08:30:45;;;;;;;1999.90;999.90;;;;;;;26.18;51.02;95228.16;5069450;28;20405;-70
2022/06/29 08:33:10;;;;;;;1999.90;999.90;;;;;;;27.20;47.79;95222.09;5070101;28;20020;-70
2022/06/29 08:35:36;;;;;;;1999.90;999.90;;;;;;;25.00;51.62;95225.31;5068375;28;20032;-70
2022/06/29 08:38:02;;;;;;;1999.90;999.90;;;;;;;24.20;54.55;95204.09;5069904;28;20048;-70
2022/06/29 08:40:35;;;;;;;1999.90;999.90;;;;;;;24.82;54.27;95231.59;5068347;28;20110;-70
2022/06/29 08:43:00;;;;;;;1999.90;999.90;;;;;;;25.77;51.18;95211.75;5049615;28;20420;-70
2022/06/29 08:45:25;;;;;;;1999.90;999.90;;;;;;;24.39;52.36;95220.03;5052920;28;20017;-70
2022/06/29 08:47:51;;;;;;;1999.90;999.90;;;;;;;24.44;53.15;95221.59;5069776;28;20050;-70
2022/06/29 08:50:16;;;;;;;1999.90;999.90;;;;;;;25.37;51.39;95220.13;5069233;28;20024;-71
2022/06/29 08:52:43;;;;;;;1999.90;999.90;;;;;;;26.14;49.70;95230.16;5069243;28;20397;-70
2022/06/29 08:55:09;;;;;;;1999.90;999.90;;;;;;;25.32;51.43;95225.97;5068530;28;20075;-71
2022/06/29 08:57:36;;;;;;;1999.90;999.90;;;;;;;26.88;48.77;95227.91;5067424;28;20606;-71
2022/06/29 09:00:01;;;;;;;1999.90;999.90;;;;;;;27.85;46.90;95222.81;5069214;28;20113;-69
2022/06/29 09:02:27;;;;;;;1999.90;999.90;;;;;;;27.64;44.94;95184.81;5067299;28;20063;-71
2022/06/29 09:04:53;;;;;;;1999.90;999.90;;;;;;;28.29;45.04;95201.00;5069445;28;20017;-71
2022/06/29 09:07:19;;;;;;;1999.90;999.90;;;;;;;28.90;44.81;95215.16;5069307;28;20729;-70
2022/06/29 09:10:00;;;;;;;1999.90;999.90;;;;;;;27.17;45.89;95225.66;5069430;28;20104;-70
2022/06/29 09:12:27;;;;;;;1999.90;999.90;;;;;;;26.09;48.95;95223.16;5068271;28;20028;-70
2022/06/29 09:14:53;;;;;;;1999.90;999.90;;;;;;;26.70;47.28;95162.63;5069544;28;20390;-70
2022/06/29 09:17:20;;;;;;;1999.90;999.90;;;;;;;26.01;49.21;95189.00;5066967;28;20031;-70
2022/06/29 09:19:47;;;;;;;1999.90;999.90;;;;;;;25.64;49.74;95146.03;5069186;28;20102;-70
2022/06/29 09:22:12;;;;;;;1999.90;999.90;;;;;;;24.90;50.20;95085.44;5067897;28;20029;-70
2022/06/29 09:24:38;;;;;;;1999.90;999.90;;;;;;;25.73;50.32;95200.84;5066971;28;20422;-70
2022/06/29 09:27:06;;;;;;;1999.90;999.90;;;;;;;25.25;50.09;95119.84;5068340;28;20616;-70
2022/06/29 09:29:36;;;;;;;1999.90;999.90;;;;;;;25.77;49.36;95127.28;5069192;28;20044;-71
2022/06/29 09:32:01;;;;;;;1999.90;999.90;;;;;;;26.86;48.17;95220.13;5067748;28;20024;-71
2022/06/29 09:34:28;;;;;;;1999.90;999.90;;;;;;;26.76;45.96;95078.34;5067940;28;20464;-70
2022/06/29 09:36:58;;;;;;;1999.90;999.90;;;;;;;28.59;45.13;95200.09;5068976;28;20020;-70
2022/06/29 09:39:34;;;;;;;1999.90;999.90;;;;;;;28.04;43.83;95113.91;5068904;28;20086;-70
2022/06/29 09:41:59;;;;;;;1999.90;999.90;;;;;;;28.06;43.44;95127.97;5067941;28;20029;-71
2022/06/29 09:44:25;;;;;;;1999.90;999.90;;;;;;;28.24;43.65;95134.63;5069094;28;20070;-73
2022/06/29 09:46:55;;;;;;;1999.90;999.90;;;;;;;29.65;42.53;95213.66;5068973;28;20040;-71
2022/06/29 09:49:27;;;;;;;1999.90;999.90;;;;;;;29.47;41.87;95152.94;5072875;28;20032;-71
2022/06/29 09:51:57;;;;;;;1999.90;999.90;;;;;;;29.35;41.92;95200.97;5070538;28;20365;-71
2022/06/29 09:54:35;;;;;;;1999.90;999.90;;;;;;;27.56;44.93;95224.38;5073069;28;20060;-71
2022/06/29 09:57:02;;;;;;;1999.90;999.90;;;;;;;28.26;44.25;95212.78;5070557;28;20031;-70
2022/06/29 10:02:34;;;;;;;1999.90;999.90;;;;;;;29.07;42.26;95217.97;5070310;28;20400;-71
2022/06/29 10:05:21;;;;;;;1999.90;999.90;;;;;;;29.43;41.18;95202.38;5068739;28;20031;-71
2022/06/29 10:07:51;;;;;;;1999.90;999.90;;;;;;;28.33;43.09;95125.91;5072398;28;20029;-71
2022/06/29 10:10:21;;;;;;;1999.90;999.90;;;;;;;29.22;42.10;95134.31;5072501;28;20031;-71
2022/06/29 10:13:40;;;;;;;1999.90;999.90;;;;;;;30.22;40.81;95217.81;5070440;28;20062;-71
2022/06/29 10:16:25;;;;;;;1999.90;999.90;;;;;;;30.08;40.10;95203.66;5064687;28;20067;-71
2022/06/29 10:18:59;;;;;;;1999.90;999.90;;;;;;;30.26;41.08;95209.53;5072551;28;20051;-72
2022/06/29 10:21:30;;;;;;;1999.90;999.90;;;;;;;30.22;40.45;95138.25;5070894;28;20032;-71
2022/06/29 10:23:57;;;;;;;1999.90;999.90;;;;;;;31.08;39.71;95140.66;5070610;28;20028;-71
2022/06/29 10:28:57;;;;;;;;;;;;;;;31.56;37.86;95198.13;5073041;28;20033;-71
2022/06/29 10:31:50;;;;;;;1999.90;999.90;;;;;;;31.82;37.19;95203.66;5070038;28;19916;-71
2022/06/29 10:34:34;;;;;;;1999.90;999.90;;;;;;;32.25;36.48;95199.56;5071381;28;20085;-71
2022/06/29 10:37:02;;;;;;;1999.90;999.90;;;;;;;32.60;35.07;95197.59;5068853;28;20064;-72
2022/06/29 10:39:45;;;;;;;1999.90;999.90;;;;;;;32.62;35.70;95197.94;5069820;28;20038;-72
2022/06/29 10:45:17;;;;;;;1999.90;999.90;;;;;;;34.13;32.05;95194.69;5071856;28;20574;-71
2022/06/29 10:47:55;;;;;;;1999.90;999.90;;;;;;;34.04;31.89;95106.34;5071836;28;20468;-72
2022/06/29 10:50:23;;;;;;;1999.90;999.90;;;;;;;35.22;31.11;95191.72;5069247;28;20033;-72
2022/06/29 10:52:50;;;;;;;1999.90;999.90;;;;;;;31.29;34.39;95204.03;5071845;28;20035;-71
2022/06/29 10:55:16;;;;;;;1999.90;999.90;;;;;;;31.92;33.89;95087.00;5071831;28;20052;-72
2022/06/29 10:57:43;;;;;;;1999.90;999.90;;;;;;;30.23;35.83;95139.03;5068458;28;20035;-72
2022/06/29 11:00:15;;;;;;;1999.90;999.90;;;;;;;31.37;35.82;95196.34;5070855;28;20032;-72
2022/06/29 11:02:42;;;;;;;1999.90;999.90;;;;;;;29.01;41.07;95163.72;5071995;28;20451;-72
2022/06/29 11:05:08;;;;;;;1999.90;999.90;;;;;;;28.12;42.01;95138.00;5071760;28;20033;-72
2022/06/29 11:13:29;;;;;;;1999.90;999.90;;;;;;;26.27;49.21;95186.81;5009205;28;20830;-72